Observations for LIVERPOOL AIRPORT, United Kingdom (EGGP)

EGGP 242120Z 23003KT CAVOK 09/06 Q1038  
EGGP 242050Z 29005KT CAVOK 09/06 Q1038  
EGGP 242020Z 31005KT CAVOK 10/07 Q1039  
EGGP 241950Z 27006KT CAVOK 09/06 Q1039  
EGGP 241920Z 30004KT CAVOK 10/05 Q1038  
EGGP 241850Z 30004KT CAVOK 11/06 Q1038  
EGGP 241820Z 30007KT 9999 FEW045 11/05 Q1038
EGGP 241750Z 29009KT 9999 FEW045 12/05 Q1038
EGGP 241720Z 29009KT 9999 FEW038 13/06 Q1038
EGGP 241650Z 29009KT 9999 FEW038 12/05 Q1038
EGGP 241620Z 30011KT 9999 FEW036 13/06 Q1038
EGGP 241550Z 30010KT 9999 SCT036 13/05 Q1038
EGGP 241520Z 29011KT 9999 FEW020 SCT036 13/05 Q1038 
EGGP 241450Z 30012KT 9999 SCT035 13/05 Q1038
EGGP 241420Z 30010KT 260V330 9999 SCT036 14/06 Q1038
EGGP 241350Z 28012KT 9999 SCT036 14/06 Q1039
EGGP 241320Z 28013KT 9999 SCT034 14/05 Q1039
EGGP 241250Z 29011KT 9999 SCT040 13/05 Q1039
EGGP 241220Z 28013KT 9999 FEW036 SCT048 13/06 Q1039 
EGGP 241150Z 31010KT 280V340 9999 FEW032 SCT040 14/06 Q1039 
EGGP 241120Z 31011KT 9999 FEW033 SCT039 14/05 Q1038 
EGGP 241050Z 30010KT 260V350 9999 SCT034 14/06 Q1038
EGGP 241020Z 30012KT 280V340 9999 SCT032 13/06 Q1038
EGGP 240950Z 31011KT 290V350 9999 FEW032 SCT038 13/06 Q1038 
EGGP 240920Z 21005KT 180V250 9999 SCT030 11/06 Q1038
EGGP 240850Z VRB03KT 9999 SCT033 11/06 Q1038
EGGP 240820Z VRB02KT 9999 FEW031 SCT036 11/06 Q1038 
EGGP 240750Z VRB02KT 9999 FEW034 10/06 Q1037
EGGP 240720Z VRB03KT 9999 FEW040 09/06 Q1037
EGGP 240650Z VRB01KT 9999 FEW040 08/05 Q1037
EGGP 240620Z VRB01KT CAVOK 07/03 Q1036  
EGGP 240550Z VRB02KT CAVOK 08/04 Q1036  
EGGP 240520Z VRB03KT CAVOK 08/04 Q1036  
EGGP 240450Z 36004KT 330V050 CAVOK 08/03 Q1035  
EGGP 240420Z 34008KT CAVOK 09/02 Q1035  
EGGP 240350Z 33006KT 9999 FEW031 10/03 Q1035
EGGP 240320Z 34008KT 9999 FEW039 10/04 Q1035
EGGP 240250Z 33007KT 9999 FEW039 09/04 Q1035
EGGP 240220Z 31003KT 9999 FEW039 09/04 Q1034
EGGP 240150Z 34003KT 9999 FEW034 10/05 Q1034
EGGP 240120Z VRB02KT 9999 FEW034 10/05 Q1034
EGGP 240050Z 33007KT 9999 FEW034 11/04 Q1033
EGGP 240020Z 33011KT 9999 FEW033 11/04 Q1033
EGGP 232350Z 33008KT 9999 FEW033 10/04 Q1033
EGGP 232320Z 32009KT CAVOK 11/04 Q1032  
EGGP 232250Z 33008KT 9999 FEW033 11/05 Q1032
EGGP 232220Z 33009KT 9999 FEW033 12/06 Q1031
EGGP 232150Z 33011KT 9999 FEW030 11/05 Q1031
EGGP 232120Z 33010KT 9999 FEW032 12/06 Q1031
EGGP 232050Z 32010KT 9999 FEW030 11/05 Q1030